Time;durP1;ratioP1;P1;durP2;ratioP2;P2;SDS_P1;SDS_P2;PMS_P1;PMS_P2;Temp;Humidity;BMP_temperature;BMP_pressure;BME280_temperature;BME280_humidity;BME280_pressure;Samples;Min_cycle;Max_cycle;Signal;HPM_P1;HPM_P2
2021/12/26 00:02:04;;;;;;;53.20;19.85;;;;;;;-8.61;78.84;99998.87;1680897;85;25414;-71
2021/12/26 00:04:32;;;;;;;46.28;20.68;;;;;;;-8.60;78.93;99997.38;1681281;85;27324;-70
2021/12/26 00:06:59;;;;;;;46.35;19.57;;;;;;;-8.56;79.03;100002.56;1680585;84;25473;-71
2021/12/26 00:09:25;;;;;;;46.77;19.12;;;;;;;-8.55;78.94;99997.61;1680808;85;25164;-71
2021/12/26 00:11:52;;;;;;;43.05;17.37;;;;;;;-8.52;78.98;100002.48;1683120;84;25678;-71
2021/12/26 00:14:19;;;;;;;45.98;19.48;;;;;;;-8.51;79.04;100008.53;1678936;85;25660;-71
2021/12/26 00:16:46;;;;;;;44.33;19.12;;;;;;;-8.52;78.93;100005.10;1685888;85;27303;-72
2021/12/26 00:19:12;;;;;;;48.58;18.35;;;;;;;-8.50;78.84;100002.29;1686117;85;25650;-72
2021/12/26 00:21:39;;;;;;;42.05;19.90;;;;;;;-8.49;79.03;100013.11;1686225;85;25159;-72
2021/12/26 00:24:06;;;;;;;43.63;17.92;;;;;;;-8.48;79.15;100013.39;1686128;85;25722;-72
2021/12/26 00:26:36;;;;;;;47.17;20.52;;;;;;;-8.47;79.12;100021.08;1687123;85;25655;-71
2021/12/26 00:29:03;;;;;;;51.75;19.25;;;;;;;-8.45;79.15;100019.58;1687175;84;27332;-72
2021/12/26 00:31:30;;;;;;;46.70;18.10;;;;;;;-8.43;79.01;100022.02;1685546;84;25719;-72
2021/12/26 00:33:56;;;;;;;43.60;18.87;;;;;;;-8.44;78.96;100018.59;1685279;84;25411;-71
2021/12/26 00:36:23;;;;;;;44.80;19.02;;;;;;;-8.43;78.94;100025.95;1685188;85;25802;-72
2021/12/26 00:38:50;;;;;;;47.30;17.50;;;;;;;-8.43;78.81;100029.89;1685192;84;25623;-71
2021/12/26 00:41:18;;;;;;;43.70;18.87;;;;;;;-8.45;78.60;100020.37;1651319;85;27429;-71
2021/12/26 00:43:45;;;;;;;46.58;19.67;;;;;;;-8.46;78.65;100024.02;1685227;84;25651;-71
2021/12/26 00:46:11;;;;;;;44.80;19.65;;;;;;;-8.46;78.67;100027.16;1685161;85;25600;-71
2021/12/26 00:48:38;;;;;;;37.58;15.30;;;;;;;-8.47;78.68;100018.45;1685140;85;26217;-71
2021/12/26 00:51:05;;;;;;;48.55;20.02;;;;;;;-8.47;78.75;100021.59;1685198;84;25621;-71
2021/12/26 00:53:33;;;;;;;47.05;18.80;;;;;;;-8.47;78.50;100020.28;1685144;85;27312;-71
2021/12/26 00:56:00;;;;;;;41.55;17.98;;;;;;;-8.48;78.27;100015.54;1685186;84;25632;-71
2021/12/26 00:58:27;;;;;;;44.23;16.42;;;;;;;-8.47;78.53;100021.59;1685151;85;25529;-71
2021/12/26 01:00:54;;;;;;;48.15;17.37;;;;;;;-8.48;78.48;100014.70;1685161;84;25732;-71
2021/12/26 01:03:24;;;;;;;42.03;17.15;;;;;;;-8.46;78.32;100016.16;1685812;84;25405;-71
2021/12/26 01:05:55;;;;;;;41.48;17.00;;;;;;;-8.44;78.35;100021.22;1666194;85;28452;-71
2021/12/26 01:08:30;;;;;;;42.75;17.57;;;;;;;-8.38;78.23;100024.33;1685095;84;26892;-71
2021/12/26 01:11:01;;;;;;;43.15;15.95;;;;;;;-8.34;78.38;100027.38;1685116;84;25407;-72
2021/12/26 01:13:32;;;;;;;38.08;15.28;;;;;;;-8.32;78.53;100025.41;1707093;84;25622;-71
2021/12/26 01:16:01;;;;;;;41.37;16.00;;;;;;;-8.27;78.47;100019.08;1687886;84;25430;-72
2021/12/26 01:18:33;;;;;;;41.18;16.25;;;;;;;-8.23;78.53;100023.44;1687974;84;27919;-70
2021/12/26 01:21:16;;;;;;;38.65;13.93;;;;;;;-8.20;78.50;100019.13;1687935;84;25629;-71
2021/12/26 01:23:34;;;;;;;32.80;13.98;;;;;;;-8.16;78.32;100025.08;1696386;83;25398;-71
2021/12/26 01:26:01;;;;;;;38.57;14.60;;;;;;;-8.12;78.28;100026.81;1698552;84;25735;-71
2021/12/26 01:28:28;;;;;;;37.05;14.13;;;;;;;-8.10;77.80;100032.20;1698237;84;25671;-71
2021/12/26 01:30:57;;;;;;;32.95;13.98;;;;;;;-8.12;77.94;100027.66;1698213;83;27361;-71
2021/12/26 01:33:26;;;;;;;37.50;14.98;;;;;;;-8.10;77.75;100022.22;1698652;83;25748;-70
2021/12/26 01:35:54;;;;;;;45.00;15.63;;;;;;;-8.10;77.92;100011.71;1698800;83;25467;-71
2021/12/26 01:38:23;;;;;;;37.48;14.90;;;;;;;-8.04;77.96;100016.17;1687955;84;25684;-71
2021/12/26 01:40:54;;;;;;;43.35;16.32;;;;;;;-7.98;77.92;100022.48;1698225;84;25651;-71
2021/12/26 01:43:26;;;;;;;38.65;15.03;;;;;;;-7.94;77.89;100020.56;1698118;83;27936;-71
2021/12/26 01:45:54;;;;;;;35.73;14.47;;;;;;;-7.87;77.92;100019.29;1697972;84;25695;-72
2021/12/26 01:48:22;;;;;;;25.07;11.87;;;;;;;-7.82;77.90;100013.46;1688008;84;25916;-72
2021/12/26 01:50:51;;;;;;;33.35;13.58;;;;;;;-7.76;77.52;100020.57;1698063;83;26166;-72
2021/12/26 01:53:19;;;;;;;34.23;14.38;;;;;;;-7.78;77.35;100020.77;1698266;83;25669;-72
2021/12/26 01:55:47;;;;;;;34.03;14.20;;;;;;;-7.80;77.35;100022.75;1698333;83;27360;-72
2021/12/26 01:58:24;;;;;;;39.98;14.30;;;;;;;-7.78;77.30;100026.50;1697965;84;25663;-72
2021/12/26 02:00:56;;;;;;;36.58;13.38;;;;;;;-7.76;77.38;100031.88;1698030;83;25649;-72
2021/12/26 02:03:23;;;;;;;33.50;13.65;;;;;;;-7.75;77.41;100035.30;1697133;83;25706;-73
2021/12/26 02:05:50;;;;;;;31.48;13.95;;;;;;;-7.73;77.50;100043.31;1687857;84;25183;-73
2021/12/26 02:08:17;;;;;;;30.27;13.25;;;;;;;-7.69;77.38;100037.16;1698055;84;27355;-73
2021/12/26 02:10:45;;;;;;;27.27;11.93;;;;;;;-7.68;77.37;100037.97;1687781;84;25635;-71
2021/12/26 02:13:12;;;;;;;36.83;14.33;;;;;;;-7.67;77.35;100034.34;1684445;83;25411;-71
2021/12/26 02:15:39;;;;;;;35.28;13.48;;;;;;;-7.70;77.29;100044.72;1679507;85;25648;-71
2021/12/26 02:18:08;;;;;;;29.67;13.58;;;;;;;-7.71;77.18;100043.92;1679473;85;25620;-71
2021/12/26 02:23:15;;;;;;;31.40;14.47;;;;;;;-7.75;77.35;100041.36;1679325;85;25422;-71
2021/12/26 02:28:16;;;;;;;35.98;14.05;;;;;;;-7.69;77.25;100041.10;1679396;85;25694;-71
2021/12/26 02:30:44;;;;;;;35.55;14.58;;;;;;;-7.73;77.34;100038.54;1679387;85;25461;-71
2021/12/26 02:33:12;;;;;;;37.48;14.28;;;;;;;-7.74;77.37;100035.11;1667546;85;27457;-72
2021/12/26 02:35:40;;;;;;;30.77;13.43;;;;;;;-7.72;77.47;100032.30;1679396;85;25555;-71
2021/12/26 02:38:08;;;;;;;35.20;12.70;;;;;;;-7.72;77.48;100033.09;1679469;84;25629;-71
2021/12/26 02:40:39;;;;;;;36.90;13.53;;;;;;;-7.74;77.48;100031.69;1679327;84;25651;-71
2021/12/26 02:43:06;;;;;;;38.25;13.32;;;;;;;-7.77;77.34;100038.13;1679447;84;25412;-71
2021/12/26 02:45:35;;;;;;;35.90;14.60;;;;;;;-7.79;77.30;100036.20;1679326;85;27907;-71
2021/12/26 02:48:04;;;;;;;31.73;13.13;;;;;;;-7.82;77.28;100033.95;1679559;84;25658;-71
2021/12/26 02:50:31;;;;;;;35.90;14.00;;;;;;;-7.84;77.30;100039.91;1667576;85;25506;-71
2021/12/26 02:53:02;;;;;;;36.35;15.63;;;;;;;-7.85;77.27;100036.17;1679695;84;25633;-71
2021/12/26 02:55:29;;;;;;;35.28;12.60;;;;;;;-7.89;77.22;100042.31;1667851;85;25666;-72
2021/12/26 02:58:04;;;;;;;42.93;13.90;;;;;;;-7.95;77.11;100045.22;1679773;84;27329;-72
2021/12/26 03:00:35;;;;;;;32.60;14.13;;;;;;;-7.99;77.42;100045.28;1679493;84;25623;-71
2021/12/26 03:03:06;;;;;;;34.08;12.85;;;;;;;-8.01;77.26;100045.17;1679622;84;25426;-71
2021/12/26 03:05:38;;;;;;;35.98;14.33;;;;;;;-8.05;77.24;100051.80;1679500;84;25639;-71
2021/12/26 03:08:08;;;;;;;36.30;15.23;;;;;;;-8.08;77.14;100057.75;1679656;85;25436;-71
2021/12/26 03:10:35;;;;;;;34.50;14.63;;;;;;;-8.05;77.44;100060.50;1679488;85;27347;-71
2021/12/26 03:13:08;;;;;;;42.67;15.72;;;;;;;-8.05;77.66;100055.73;1679344;84;25725;-73
2021/12/26 03:15:36;;;;;;;38.88;15.55;;;;;;;-8.05;77.50;100044.75;1679541;85;25630;-72
2021/12/26 03:18:05;;;;;;;42.08;17.20;;;;;;;-8.07;77.41;100045.42;1679492;84;26314;-72
2021/12/26 03:20:39;;;;;;;40.55;14.53;;;;;;;-8.09;77.50;100041.71;1679663;84;25435;-72
2021/12/26 03:23:08;;;;;;;38.78;15.72;;;;;;;-8.11;77.66;100043.69;1679514;85;27955;-72
2021/12/26 03:25:35;;;;;;;35.85;15.78;;;;;;;-8.14;77.64;100045.89;1679534;85;25579;-72
2021/12/26 03:28:06;;;;;;;38.08;16.23;;;;;;;-8.16;77.76;100039.52;1679478;84;25560;-72
2021/12/26 03:30:35;;;;;;;32.95;14.58;;;;;;;-8.15;77.78;100044.29;1679470;85;25802;-72
2021/12/26 03:33:04;;;;;;;38.98;14.05;;;;;;;-8.18;77.85;100048.09;1679646;85;25637;-72
2021/12/26 03:35:32;;;;;;;33.50;14.90;;;;;;;-8.22;77.67;100048.18;1679743;85;27264;-72
2021/12/26 03:38:01;;;;;;;34.45;14.58;;;;;;;-8.20;77.76;100051.93;1679398;85;25455;-72
2021/12/26 03:40:28;;;;;;;34.95;13.32;;;;;;;-8.19;77.75;100053.53;1679664;85;25597;-72
2021/12/26 03:42:55;;;;;;;34.50;13.45;;;;;;;-8.16;77.80;100046.08;1679497;84;25647;-72
2021/12/26 03:45:22;;;;;;;34.65;14.33;;;;;;;-8.14;77.74;100047.20;1679520;85;25433;-72
2021/12/26 03:47:50;;;;;;;34.03;13.55;;;;;;;-8.13;77.71;100046.21;1679486;85;27393;-72
2021/12/26 03:50:21;;;;;;;31.52;13.35;;;;;;;-8.16;77.47;100041.34;1679631;85;25435;-71
2021/12/26 03:52:56;;;;;;;32.58;13.83;;;;;;;-8.16;77.55;100038.72;1679572;85;25594;-71
2021/12/26 03:55:18;;;;;;;35.05;14.20;;;;;;;-8.12;77.62;100039.47;1678215;84;26330;-71
2021/12/26 03:57:45;;;;;;;44.40;17.07;;;;;;;-8.10;77.47;100040.08;1679800;85;25485;-72
2021/12/26 04:00:14;;;;;;;39.83;16.17;;;;;;;-8.06;77.59;100039.19;1680428;85;27388;-71
2021/12/26 04:02:45;;;;;;;40.35;15.65;;;;;;;-8.02;77.57;100042.23;1678671;85;25219;-71
2021/12/26 04:05:14;;;;;;;32.40;12.88;;;;;;;-8.02;77.52;100036.47;1680174;84;25425;-71
2021/12/26 04:07:42;;;;;;;36.38;13.95;;;;;;;-7.95;77.43;100041.76;1680186;85;26175;-71
2021/12/26 04:10:12;;;;;;;34.33;12.82;;;;;;;-7.92;77.07;100034.30;1679977;84;25640;-72
2021/12/26 04:12:43;;;;;;;31.12;12.60;;;;;;;-7.90;76.76;100045.45;1680962;84;27380;-72
2021/12/26 04:15:11;;;;;;;32.60;13.05;;;;;;;-7.89;76.75;100043.63;1648053;86;25715;-72
2021/12/26 04:17:38;;;;;;;37.25;13.60;;;;;;;-7.86;76.59;100045.06;1710675;83;25631;-72
2021/12/26 04:20:07;;;;;;;31.90;13.53;;;;;;;-7.88;76.27;100051.82;1719205;83;26168;-72
2021/12/26 04:22:35;;;;;;;30.77;12.60;;;;;;;-7.89;76.36;100051.50;1719434;83;25408;-72
2021/12/26 04:25:03;;;;;;;31.73;12.85;;;;;;;-7.91;76.22;100058.25;1719198;83;27983;-72
2021/12/26 04:27:30;;;;;;;35.33;13.10;;;;;;;-7.98;76.17;100061.86;1719143;83;25586;-72
2021/12/26 04:29:58;;;;;;;29.52;13.45;;;;;;;-8.03;76.32;100063.74;1719213;83;25575;-72
2021/12/26 04:32:24;;;;;;;30.43;12.28;;;;;;;-8.08;76.50;100061.69;1679541;85;25685;-72
2021/12/26 04:34:51;;;;;;;30.68;13.00;;;;;;;-8.13;76.60;100065.90;1677694;84;25279;-72
2021/12/26 04:37:17;;;;;;;27.95;12.18;;;;;;;-8.17;76.60;100068.58;1685194;85;27867;-72
2021/12/26 04:39:44;;;;;;;32.48;13.40;;;;;;;-8.23;77.05;100064.11;1685074;85;25649;-70
2021/12/26 04:42:11;;;;;;;26.77;12.20;;;;;;;-8.32;77.04;100062.14;1685169;85;25311;-71
2021/12/26 04:44:38;;;;;;;31.20;12.90;;;;;;;-8.30;77.26;100064.87;1685100;84;26193;-71
2021/12/26 04:47:05;;;;;;;25.95;13.00;;;;;;;-8.32;77.28;100068.70;1685102;84;25627;-71
2021/12/26 04:49:32;;;;;;;31.52;12.65;;;;;;;-8.30;77.54;100064.87;1685149;85;27324;-71
2021/12/26 04:51:59;;;;;;;27.30;12.23;;;;;;;-8.22;77.70;100067.86;1685066;85;25747;-71
2021/12/26 04:54:28;;;;;;;30.82;13.18;;;;;;;-8.19;77.74;100068.77;1685166;85;25578;-70
2021/12/26 04:56:55;;;;;;;31.82;12.58;;;;;;;-8.15;77.73;100066.09;1685155;85;26343;-71
2021/12/26 04:59:21;;;;;;;27.75;12.93;;;;;;;-8.09;77.75;100077.14;1651490;85;25576;-71
2021/12/26 05:01:48;;;;;;;31.73;12.93;;;;;;;-8.08;77.65;100080.06;1685109;85;27455;-71
2021/12/26 05:04:15;;;;;;;31.75;12.85;;;;;;;-8.03;77.68;100082.62;1685219;85;25560;-72
2021/12/26 05:06:42;;;;;;;29.45;12.63;;;;;;;-8.03;77.36;100074.75;1685092;84;25551;-72
2021/12/26 05:09:09;;;;;;;31.37;13.08;;;;;;;-8.00;77.29;100081.74;1685075;85;25629;-72
2021/12/26 05:11:37;;;;;;;28.70;12.80;;;;;;;-7.98;76.94;100083.66;1685162;85;25386;-72
2021/12/26 05:14:04;;;;;;;27.60;12.35;;;;;;;-8.01;76.57;100074.86;1700069;84;27345;-72
2021/12/26 05:16:31;;;;;;;26.97;11.22;;;;;;;-8.02;76.26;100071.91;1689329;84;25514;-72
2021/12/26 05:18:58;;;;;;;27.90;11.38;;;;;;;-8.03;76.13;100068.99;1672597;85;25585;-72
2021/12/26 05:21:24;;;;;;;30.75;12.40;;;;;;;-8.04;75.64;100075.23;1737497;82;26317;-72
2021/12/26 05:23:51;;;;;;;30.10;13.75;;;;;;;-8.12;75.30;100075.38;1737638;82;25648;-72
2021/12/26 05:26:18;;;;;;;35.45;13.88;;;;;;;-8.16;75.15;100072.84;1708507;82;27011;-72
2021/12/26 05:28:44;;;;;;;31.48;14.15;;;;;;;-8.21;74.89;100073.91;1702226;83;25395;-72
2021/12/26 05:31:11;;;;;;;38.30;14.83;;;;;;;-8.23;74.78;100078.55;1727804;82;25534;-72
2021/12/26 05:33:38;;;;;;;43.85;16.25;;;;;;;-8.28;74.86;100078.60;1727762;83;26486;-71
2021/12/26 05:36:05;;;;;;;55.75;18.00;;;;;;;-8.30;75.18;100088.99;1727417;83;25585;-71
2021/12/26 05:38:36;;;;;;;40.52;15.83;;;;;;;-8.29;75.62;100087.49;1694800;84;27330;-71
2021/12/26 05:41:02;;;;;;;46.02;16.12;;;;;;;-8.28;75.62;100085.67;1708317;82;25683;-71
2021/12/26 05:43:29;;;;;;;38.63;15.08;;;;;;;-8.30;75.37;100083.23;1737610;82;25661;-71
2021/12/26 05:45:56;;;;;;;42.75;15.05;;;;;;;-8.32;75.16;100085.24;1737520;82;25623;-71
2021/12/26 05:48:23;;;;;;;39.67;13.83;;;;;;;-8.35;75.27;100089.55;1702351;84;25478;-70
2021/12/26 05:50:52;;;;;;;40.10;15.05;;;;;;;-8.42;75.45;100095.25;1729796;82;27381;-71
2021/12/26 05:53:20;;;;;;;28.75;11.57;;;;;;;-8.43;75.78;100091.03;1672305;84;25700;-72
2021/12/26 05:55:46;;;;;;;37.83;14.13;;;;;;;-8.38;75.64;100097.00;1727387;82;25545;-72
2021/12/26 05:58:13;;;;;;;47.50;16.00;;;;;;;-8.35;75.40;100100.05;1727920;83;25628;-70
2021/12/26 06:00:40;;;;;;;38.73;15.20;;;;;;;-8.40;75.32;100099.80;1707243;83;25686;-71
2021/12/26 06:03:07;;;;;;;52.15;17.40;;;;;;;-8.45;75.24;100105.64;1728709;83;27570;-71
2021/12/26 06:05:33;;;;;;;41.33;15.03;;;;;;;-8.52;75.40;100103.98;1699690;84;25778;-72
2021/12/26 06:08:00;;;;;;;46.85;15.13;;;;;;;-8.55;75.56;100101.72;1730880;82;25456;-70
2021/12/26 06:10:27;;;;;;;39.23;15.70;;;;;;;-8.60;75.66;100103.59;1728854;83;25624;-70
2021/12/26 06:12:53;;;;;;;38.25;14.33;;;;;;;-8.64;75.87;100098.42;1707203;83;25462;-70
2021/12/26 06:15:20;;;;;;;44.98;15.28;;;;;;;-8.67;75.98;100096.97;1710416;84;27305;-70
2021/12/26 06:17:47;;;;;;;41.23;14.68;;;;;;;-8.68;76.03;100100.61;1710406;84;25615;-70
2021/12/26 06:20:14;;;;;;;37.48;14.73;;;;;;;-8.65;75.93;100108.59;1688184;84;25709;-70
2021/12/26 06:22:43;;;;;;;38.50;14.80;;;;;;;-8.65;76.10;100108.11;1678331;85;25617;-71
2021/12/26 06:25:13;;;;;;;39.08;15.05;;;;;;;-8.69;75.92;100117.84;1649611;85;25257;-70
2021/12/26 06:27:40;;;;;;;34.08;14.43;;;;;;;-8.74;75.88;100124.95;1688794;85;27511;-70
2021/12/26 06:30:09;;;;;;;42.58;16.50;;;;;;;-8.79;75.84;100131.25;1678788;85;25287;-70
2021/12/26 06:32:38;;;;;;;39.08;17.00;;;;;;;-8.81;75.97;100133.76;1679449;85;25397;-71
2021/12/26 06:35:08;;;;;;;41.18;15.98;;;;;;;-8.88;76.04;100131.87;1641713;87;26157;-71
2021/12/26 06:37:37;;;;;;;46.63;17.23;;;;;;;-8.89;76.60;100134.67;1669992;86;25497;-71
2021/12/26 06:40:07;;;;;;;40.40;16.35;;;;;;;-8.91;76.84;100143.22;1670400;86;27335;-71
2021/12/26 06:42:40;;;;;;;36.05;15.18;;;;;;;-8.91;77.05;100148.47;1617134;86;25540;-71
2021/12/26 06:45:03;;;;;;;37.83;15.75;;;;;;;-8.93;77.45;100147.84;1667813;86;25562;-71
2021/12/26 06:47:30;;;;;;;40.08;15.78;;;;;;;-8.96;77.14;100151.63;1668754;86;25613;-71
2021/12/26 06:49:57;;;;;;;48.40;17.15;;;;;;;-8.99;77.29;100142.83;1668637;86;25684;-69
2021/12/26 06:52:24;;;;;;;46.73;18.05;;;;;;;-9.00;77.65;100143.84;1668397;86;27343;-72
2021/12/26 06:54:51;;;;;;;47.03;16.52;;;;;;;-9.04;78.32;100151.26;1667995;85;25232;-71
2021/12/26 06:57:18;;;;;;;46.40;18.17;;;;;;;-9.04;77.72;100155.19;1666986;86;25636;-71
2021/12/26 06:59:44;;;;;;;42.27;18.42;;;;;;;-9.06;78.83;100161.12;1666905;86;25796;-71
2021/12/26 07:02:11;;;;;;;45.17;18.07;;;;;;;-9.06;78.48;100163.74;1666964;86;25661;-71
2021/12/26 07:04:38;;;;;;;44.35;18.40;;;;;;;-9.04;78.78;100157.81;1667088;85;28032;-70
2021/12/26 07:07:05;;;;;;;39.48;18.27;;;;;;;-9.02;78.74;100162.37;1666835;86;25491;-70
2021/12/26 07:09:31;;;;;;;51.65;19.27;;;;;;;-8.97;78.88;100155.27;1666964;86;25440;-71
2021/12/26 07:11:58;;;;;;;44.70;19.52;;;;;;;-8.91;79.10;100157.14;1635990;86;25525;-71
2021/12/26 07:14:25;;;;;;;48.92;20.60;;;;;;;-8.88;79.30;100162.02;1666618;85;25445;-71
2021/12/26 07:16:51;;;;;;;50.30;19.70;;;;;;;-8.83;79.51;100156.23;1663773;86;28042;-71
2021/12/26 07:19:18;;;;;;;47.08;19.73;;;;;;;-8.81;79.46;100159.47;1664645;86;25292;-71
2021/12/26 07:21:45;;;;;;;53.92;21.40;;;;;;;-8.77;79.59;100168.58;1664764;86;25202;-71
2021/12/26 07:24:11;;;;;;;45.08;18.62;;;;;;;-8.73;79.35;100173.78;1642943;86;25709;-71
2021/12/26 07:26:38;;;;;;;50.67;20.40;;;;;;;-8.62;79.48;100179.03;1665991;84;25259;-71
2021/12/26 07:29:05;;;;;;;48.00;19.98;;;;;;;-8.53;79.73;100180.55;1696727;84;27335;-70
2021/12/26 07:31:31;;;;;;;50.15;19.75;;;;;;;-8.47;79.62;100178.48;1696647;84;25612;-71
2021/12/26 07:33:58;;;;;;;46.15;19.07;;;;;;;-8.36;79.93;100181.57;1696924;84;25402;-71
2021/12/26 07:36:25;;;;;;;45.98;19.90;;;;;;;-8.22;79.95;100183.81;1696664;84;25619;-71
2021/12/26 07:38:52;;;;;;;46.75;18.50;;;;;;;-8.14;79.98;100179.27;1696778;84;25644;-72
2021/12/26 07:41:20;;;;;;;40.92;18.95;;;;;;;-8.02;80.14;100183.48;1665314;84;27959;-72
2021/12/26 07:43:46;;;;;;;44.60;19.73;;;;;;;-7.92;79.99;100186.59;1696791;84;25801;-71
2021/12/26 07:46:13;;;;;;;44.77;19.07;;;;;;;-7.78;80.27;100180.13;1665322;84;25496;-71
2021/12/26 07:48:40;;;;;;;43.13;17.90;;;;;;;-7.61;80.42;100188.05;1696813;84;26459;-71
2021/12/26 07:51:07;;;;;;;49.18;18.05;;;;;;;-7.53;80.10;100200.21;1696877;84;25460;-71
2021/12/26 07:53:33;;;;;;;47.10;18.37;;;;;;;-7.43;80.03;100195.94;1696881;84;27399;-71
2021/12/26 07:56:00;;;;;;;44.80;18.35;;;;;;;-7.30;80.10;100205.22;1665050;84;25647;-71
2021/12/26 07:58:27;;;;;;;42.45;18.37;;;;;;;-7.20;80.06;100203.53;1696850;84;25578;-71
2021/12/26 08:00:53;;;;;;;44.53;19.07;;;;;;;-7.18;79.71;100205.48;1665412;84;25639;-71
2021/12/26 08:03:20;;;;;;;46.00;19.60;;;;;;;-7.10;79.99;100215.81;1664765;84;25639;-72
2021/12/26 08:05:47;;;;;;;48.48;19.62;;;;;;;-7.05;79.78;100216.05;1696910;84;28011;-71
2021/12/26 08:08:13;;;;;;;40.20;18.12;;;;;;;-6.99;79.77;100215.27;1696775;84;25679;-71
2021/12/26 08:10:40;;;;;;;42.60;17.77;;;;;;;-6.91;79.76;100221.37;1696897;84;25437;-71
2021/12/26 08:13:07;;;;;;;40.50;17.32;;;;;;;-6.88;79.56;100218.35;1696909;84;25610;-71
2021/12/26 08:15:33;;;;;;;53.45;20.68;;;;;;;-6.86;79.46;100221.11;1705658;83;25398;-72
2021/12/26 08:18:00;;;;;;;47.25;19.30;;;;;;;-6.88;79.38;100226.24;1706944;84;27282;-71
2021/12/26 08:20:27;;;;;;;42.38;19.25;;;;;;;-6.87;79.42;100221.30;1708717;84;25725;-71
2021/12/26 08:22:53;;;;;;;49.05;18.85;;;;;;;-6.82;79.51;100223.64;1708801;84;25571;-72
2021/12/26 08:25:20;;;;;;;47.05;19.27;;;;;;;-6.74;79.71;100233.68;1708804;84;25659;-71
2021/12/26 08:27:47;;;;;;;50.08;20.57;;;;;;;-6.68;79.81;100240.80;1708811;84;25580;-71
2021/12/26 08:30:14;;;;;;;43.78;19.98;;;;;;;-6.59;79.96;100240.44;1708811;84;27278;-71
2021/12/26 08:32:43;;;;;;;49.27;18.57;;;;;;;-6.50;80.22;100246.33;1708689;84;25397;-71
2021/12/26 08:35:09;;;;;;;50.43;19.82;;;;;;;-6.44;79.93;100241.58;1679457;85;25666;-72
2021/12/26 08:37:38;;;;;;;48.80;18.27;;;;;;;-6.39;79.81;100239.67;1679204;85;25674;-71
2021/12/26 08:40:07;;;;;;;48.13;18.57;;;;;;;-6.40;79.37;100242.02;1708956;84;25401;-72
2021/12/26 08:42:34;;;;;;;46.80;20.48;;;;;;;-6.41;79.34;100237.23;1667305;85;27899;-71
2021/12/26 08:45:01;;;;;;;42.67;18.52;;;;;;;-6.39;79.54;100241.79;1708622;84;25713;-71
2021/12/26 08:47:28;;;;;;;46.10;19.00;;;;;;;-6.39;79.48;100239.16;1708670;84;25472;-72
2021/12/26 08:49:56;;;;;;;42.90;17.55;;;;;;;-6.28;80.18;100243.05;1679160;85;25672;-72
2021/12/26 08:52:22;;;;;;;45.23;18.77;;;;;;;-6.25;79.78;100247.92;1678658;85;25596;-72
2021/12/26 08:54:49;;;;;;;42.80;17.90;;;;;;;-6.18;79.93;100249.23;1677038;85;27347;-72
2021/12/26 08:57:16;;;;;;;40.70;16.50;;;;;;;-6.15;79.89;100245.39;1694789;84;25420;-72
2021/12/26 08:59:44;;;;;;;41.73;17.60;;;;;;;-6.09;80.07;100244.61;1692617;84;25611;-72
2021/12/26 09:02:10;;;;;;;38.28;16.97;;;;;;;-6.02;80.05;100246.22;1679448;85;25621;-72
2021/12/26 09:04:40;;;;;;;37.65;17.20;;;;;;;-5.94;80.02;100243.88;1679593;85;25167;-72
2021/12/26 09:07:09;;;;;;;40.03;16.23;;;;;;;-5.94;80.03;100249.16;1679543;84;27307;-71
2021/12/26 09:09:38;;;;;;;38.45;14.03;;;;;;;-5.83;80.36;100250.37;1679525;84;25666;-71
2021/12/26 09:12:07;;;;;;;45.90;16.32;;;;;;;-5.83;80.03;100247.22;1679437;85;25630;-71
2021/12/26 09:14:34;;;;;;;38.08;15.55;;;;;;;-5.84;80.17;100253.52;1681383;84;25685;-71
2021/12/26 09:17:03;;;;;;;40.75;15.75;;;;;;;-5.82;80.31;100249.37;1606124;86;25533;-71
2021/12/26 09:19:30;;;;;;;32.25;15.25;;;;;;;-5.80;80.40;100249.17;1645624;85;27375;-71
2021/12/26 09:21:59;;;;;;;37.80;15.23;;;;;;;-5.76;80.66;100241.95;1668854;85;25644;-71
2021/12/26 09:24:26;;;;;;;;;;;;;;;-5.72;80.70;100239.23;1669474;86;25625;-71
2021/12/26 09:26:53;;;;;;;39.00;15.95;;;;;;;-5.72;80.90;100233.13;1666926;86;25631;-71
2021/12/26 09:29:20;;;;;;;40.48;15.58;;;;;;;-5.70;81.03;100229.81;1667155;86;25598;-72
2021/12/26 09:31:47;;;;;;;35.85;15.05;;;;;;;-5.66;81.20;100234.45;1635969;86;27411;-72
2021/12/26 09:34:16;;;;;;;35.03;15.60;;;;;;;-5.60;81.33;100230.21;1667193;86;25661;-73
2021/12/26 09:36:44;;;;;;;29.37;12.82;;;;;;;-5.48;81.56;100232.52;1685220;85;25620;-72
2021/12/26 09:39:13;;;;;;;38.42;16.00;;;;;;;-5.38;81.43;100228.64;1665266;85;25631;-72
2021/12/26 09:41:40;;;;;;;36.73;15.98;;;;;;;-5.29;81.22;100224.28;1685508;85;25416;-72
2021/12/26 09:44:08;;;;;;;37.53;16.25;;;;;;;-5.29;80.72;100228.75;1685215;85;27916;-72
2021/12/26 09:46:36;;;;;;;37.67;16.32;;;;;;;-5.21;81.09;100229.02;1684929;85;25460;-73
2021/12/26 09:49:04;;;;;;;41.63;17.42;;;;;;;-5.16;80.73;100235.32;1685085;85;25480;-72
2021/12/26 09:51:33;;;;;;;38.92;16.82;;;;;;;-5.07;80.59;100234.58;1685038;85;25630;-72
2021/12/26 09:54:01;;;;;;;39.60;15.85;;;;;;;-4.99;80.77;100246.72;1685239;85;25607;-71
2021/12/26 09:56:28;;;;;;;38.65;16.27;;;;;;;-4.88;81.24;100238.97;1685064;85;27409;-73
2021/12/26 09:59:09;;;;;;;36.28;15.72;;;;;;;-4.81;80.65;100234.99;1685047;85;25417;-73
2021/12/26 10:01:46;;;;;;;39.10;17.37;;;;;;;-4.79;79.91;100238.75;1685077;85;25610;-72
2021/12/26 10:04:24;;;;;;;36.48;16.95;;;;;;;-4.78;79.66;100247.78;1685169;84;25574;-72
2021/12/26 10:07:04;;;;;;;37.42;16.60;;;;;;;-4.78;79.33;100245.14;1685070;85;25492;-73
2021/12/26 10:09:51;;;;;;;38.85;16.93;;;;;;;-4.79;79.51;100243.50;1605708;89;28052;-73
2021/12/26 10:12:21;;;;;;;38.15;17.02;;;;;;;-4.72;80.03;100252.72;1597618;89;25672;-73
2021/12/26 10:14:52;;;;;;;38.00;15.90;;;;;;;-4.69;79.49;100245.71;1597190;89;25539;-73
2021/12/26 10:17:27;;;;;;;40.63;17.70;;;;;;;-4.73;79.19;100244.00;1596144;89;25644;-73
2021/12/26 10:20:05;;;;;;;35.30;15.72;;;;;;;-4.71;79.53;100245.12;1578139;89;25498;-73
2021/12/26 10:22:32;;;;;;;42.00;17.25;;;;;;;-4.67;79.49;100247.63;1596562;89;27346;-71
2021/12/26 10:24:59;;;;;;;38.17;16.80;;;;;;;-4.67;79.33;100253.42;1595780;89;25819;-72
2021/12/26 10:27:31;;;;;;;37.38;16.20;;;;;;;-4.70;79.11;100254.15;1598049;89;25632;-72
2021/12/26 10:30:00;;;;;;;31.45;15.75;;;;;;;-4.78;78.63;100254.89;1601101;89;25832;-73
2021/12/26 10:32:37;;;;;;;40.00;17.40;;;;;;;-4.86;78.61;100257.23;1637600;87;25594;-72
2021/12/26 10:35:15;;;;;;;40.98;18.57;;;;;;;-4.86;79.13;100252.48;1674540;85;26917;-72
2021/12/26 10:37:53;;;;;;;42.80;17.48;;;;;;;-4.85;79.48;100253.59;1677063;85;25637;-72
2021/12/26 10:40:25;;;;;;;38.10;16.17;;;;;;;-4.77;79.37;100261.78;1676946;85;25458;-72
2021/12/26 10:42:58;;;;;;;36.00;16.07;;;;;;;-4.78;79.20;100274.17;1676940;85;25587;-72
2021/12/26 10:45:29;;;;;;;36.48;17.00;;;;;;;-4.79;79.20;100268.58;1677096;85;25560;-72
2021/12/26 10:48:00;;;;;;;40.65;17.65;;;;;;;-4.79;79.14;100265.14;1676637;85;27321;-72
2021/12/26 10:50:30;;;;;;;39.35;16.50;;;;;;;-4.76;79.54;100260.77;1676845;85;25532;-72
2021/12/26 10:53:01;;;;;;;39.48;16.57;;;;;;;-4.74;79.37;100259.53;1676972;85;25581;-72
2021/12/26 10:55:33;;;;;;;33.25;15.53;;;;;;;-4.73;79.36;100264.31;1676937;85;25547;-72
2021/12/26 10:58:09;;;;;;;40.78;17.35;;;;;;;-4.69;79.38;100274.23;1677021;85;25412;-72
2021/12/26 11:00:43;;;;;;;39.53;16.90;;;;;;;-4.67;79.31;100271.37;1621550;87;27425;-73
2021/12/26 11:03:22;;;;;;;36.03;16.12;;;;;;;-4.64;79.41;100275.45;1621188;88;25777;-73
2021/12/26 11:05:52;;;;;;;;;;;;;;;-4.60;79.47;100273.48;1600513;88;25508;-72
2021/12/26 11:08:36;;;;;;;48.60;19.20;;;;;;;-4.55;79.45;100274.98;1621827;87;25627;-73
2021/12/26 11:11:16;;;;;;;40.20;17.48;;;;;;;-4.54;79.62;100281.09;1621676;87;25672;-72
2021/12/26 11:13:41;;;;;;;41.13;16.77;;;;;;;-4.46;79.81;100271.62;1621666;86;27319;-72
2021/12/26 11:16:08;;;;;;;37.23;15.68;;;;;;;-4.36;80.31;100278.58;1622037;87;25729;-72
2021/12/26 11:18:37;;;;;;;33.67;14.45;;;;;;;-4.27;79.50;100276.98;1621815;87;25536;-72
2021/12/26 11:21:08;;;;;;;29.82;14.45;;;;;;;-4.27;78.95;100275.67;1621807;87;25788;-72